Air Quality Table

TIMESTAMP NO2 SO2 O3 PM10 PM2.5 TEMP HUM AIRPRES WS WD NO
2021-09-20 11:00 15.3 µg/m3 1.16 µg/m3 76.81 µg/m3 43.99 µg/m3 N/A 28.65 °C 66.53 % 1,008.97 mbar 3.12 m/s 183.85 Deg 4.25 µg/m3
2021-09-20 10:00 17.99 µg/m3 0.87 µg/m3 64.35 µg/m3 58.97 µg/m3 N/A 28.6 °C 65.35 % 1,009.04 mbar 3.11 m/s 210.75 Deg 5.03 µg/m3
2021-09-20 09:00 31.86 µg/m3 0.94 µg/m3 45.7 µg/m3 46.1 µg/m3 N/A 27.83 °C 70.6 % 1,008.62 mbar 3.15 m/s 227.65 Deg 10.76 µg/m3
2021-09-20 08:00 40.05 µg/m3 0.99 µg/m3 33.08 µg/m3 64.63 µg/m3 N/A 26.49 °C 79.94 % 1,008.48 mbar 2.88 m/s 296.88 Deg 12.56 µg/m3
2021-09-20 07:00 43.36 µg/m3 1.12 µg/m3 20.26 µg/m3 48.75 µg/m3 N/A 25.02 °C 91.03 % 1,008.51 mbar 1.57 m/s 308.85 Deg 11.54 µg/m3
2021-09-20 06:00 31.55 µg/m3 0.92 µg/m3 25.97 µg/m3 38.31 µg/m3 N/A 24.52 °C 94.61 % 1,008.41 mbar 1.66 m/s 309.93 Deg 3.64 µg/m3
2021-09-20 05:00 15.78 µg/m3 0.85 µg/m3 40.87 µg/m3 42.2 µg/m3 N/A 24.84 °C 93.94 % 1,008.14 mbar 1.95 m/s 295.55 Deg 1.48 µg/m3
2021-09-20 04:00 9.52 µg/m3 0.79 µg/m3 40.84 µg/m3 50.14 µg/m3 N/A 24.63 °C 96.82 % 1,007.96 mbar 1.39 m/s 272.85 Deg 0.43 µg/m3
2021-09-20 03:00 10.32 µg/m3 0.87 µg/m3 37.75 µg/m3 51.91 µg/m3 N/A 24.71 °C 98.08 % 1,007.79 mbar 0.76 m/s 243.9 Deg 1.15 µg/m3
2021-09-20 02:00 5.9 µg/m3 0.99 µg/m3 54.28 µg/m3 55.23 µg/m3 N/A 25.27 °C 95.79 % 1,008.04 mbar 1.18 m/s 287.03 Deg 0.05 µg/m3
2021-09-20 01:00 7.74 µg/m3 0.86 µg/m3 59.43 µg/m3 55.58 µg/m3 N/A 25.36 °C 91.2 % 1,008.35 mbar 1.46 m/s 275.8 Deg 0.25 µg/m3
2021-09-20 00:00 16.93 µg/m3 0.94 µg/m3 43.49 µg/m3 44.33 µg/m3 N/A 25.18 °C 94.07 % 1,008.28 mbar 1.28 m/s 251.58 Deg 0.51 µg/m3
2021-09-19 23:00 17.51 µg/m3 1.02 µg/m3 52.11 µg/m3 34.68 µg/m3 N/A 25.8 °C 89.81 % 1,008.15 mbar 1.06 m/s 260 Deg 0.49 µg/m3
2021-09-19 22:00 17.05 µg/m3 0.91 µg/m3 60.38 µg/m3 40.85 µg/m3 N/A 26.67 °C 84.99 % 1,007.99 mbar 1.32 m/s 272.5 Deg 0.73 µg/m3
2021-09-19 21:00 16.23 µg/m3 0.94 µg/m3 55.77 µg/m3 72.05 µg/m3 N/A 27.05 °C 86.66 % 1,007.71 mbar 1.69 m/s 272.97 Deg 1 µg/m3
2021-09-19 20:00 16.22 µg/m3 0.91 µg/m3 50.11 µg/m3 74.54 µg/m3 N/A 27.32 °C 91.01 % 1,007.19 mbar 1.46 m/s 309.4 Deg 1.21 µg/m3
2021-09-19 19:00 14.91 µg/m3 1.01 µg/m3 55.31 µg/m3 52.94 µg/m3 N/A 28.05 °C 86.33 % 1,006.75 mbar 1.88 m/s 291.08 Deg 1.55 µg/m3
2021-09-19 18:00 13.22 µg/m3 0.98 µg/m3 67.28 µg/m3 65.95 µg/m3 N/A 30.27 °C 71.23 % 1,006.41 mbar 1.6 m/s 291.43 Deg 1.02 µg/m3
2021-09-19 17:00 9.02 µg/m3 0.86 µg/m3 79.06 µg/m3 54.62 µg/m3 N/A 31.6 °C 65.57 % 1,006.32 mbar 1.63 m/s 285.37 Deg 0.98 µg/m3
2021-09-19 16:00 7.4 µg/m3 0.84 µg/m3 81.35 µg/m3 17.65 µg/m3 N/A 32.33 °C 61.42 % 1,006.43 mbar 2.21 m/s 275.55 Deg 0.76 µg/m3
2021-09-19 15:00 5.36 µg/m3 0.93 µg/m3 87.64 µg/m3 9.8 µg/m3 N/A 33.41 °C 52.6 % 1,006.59 mbar 2.01 m/s 232.32 Deg 0.54 µg/m3
2021-09-19 14:00 5.76 µg/m3 1.02 µg/m3 86.72 µg/m3 13.62 µg/m3 N/A 33.82 °C 44.5 % 1,006.88 mbar 2.41 m/s 279.03 Deg 0.63 µg/m3

It is to be noted that the data is provisional and subject to quality assurance procedures. For validated data kindly refer your request to contact.air@era.org.mt